createdAt,value
2022-12-27T00:00:34.417Z,2.08
2022-12-27T00:01:34.508Z,2.04
2022-12-27T00:02:34.463Z,2.02
2022-12-27T00:03:34.363Z,2.04
2022-12-27T00:04:34.380Z,2.04
2022-12-27T00:05:34.329Z,2.02
2022-12-27T00:06:34.271Z,2.01
2022-12-27T00:07:34.057Z,2.02
2022-12-27T00:08:34.279Z,2.02
2022-12-27T00:09:34.369Z,2.06
2022-12-27T00:10:34.235Z,2.08
2022-12-27T00:11:34.259Z,2.12
2022-12-27T00:12:34.277Z,2.15
2022-12-27T00:13:34.059Z,2.17
2022-12-27T00:14:34.157Z,2.20
2022-12-27T00:15:34.062Z,2.19
2022-12-27T00:16:34.234Z,2.17
2022-12-27T00:17:34.211Z,2.19
2022-12-27T00:18:34.220Z,2.19
2022-12-27T00:19:34.209Z,2.20
2022-12-27T00:20:34.204Z,2.19
2022-12-27T00:21:34.097Z,2.20
2022-12-27T00:22:34.093Z,2.20
2022-12-27T00:23:34.088Z,2.26
2022-12-27T00:24:34.205Z,2.26
2022-12-27T00:25:34.003Z,2.28
2022-12-27T00:26:33.918Z,2.33
2022-12-27T00:27:34.096Z,2.34
2022-12-27T00:28:34.074Z,2.37
2022-12-27T00:29:34.062Z,2.38
2022-12-27T00:30:34.069Z,2.44
2022-12-27T00:31:34.040Z,2.46
2022-12-27T00:32:34.105Z,2.51
2022-12-27T00:33:34.028Z,2.49
2022-12-27T00:34:33.971Z,2.53
2022-12-27T00:35:33.977Z,2.55
2022-12-27T00:36:34.067Z,2.56
2022-12-27T00:37:33.986Z,2.56
2022-12-27T00:38:33.995Z,2.56
2022-12-27T00:39:33.921Z,2.61
2022-12-27T00:40:33.927Z,2.63
2022-12-27T00:41:33.876Z,2.64
2022-12-27T00:42:34.044Z,2.67
2022-12-27T00:43:33.901Z,2.67
2022-12-27T00:44:33.904Z,2.73
2022-12-27T00:45:34.039Z,2.76
2022-12-27T00:46:33.921Z,2.77
2022-12-27T00:47:33.913Z,2.77
2022-12-27T00:48:33.978Z,2.82
2022-12-27T00:49:33.971Z,2.82
2022-12-27T00:50:33.886Z,2.84
2022-12-27T00:51:33.884Z,2.79
2022-12-27T00:52:33.824Z,2.76
2022-12-27T00:53:33.880Z,2.73
2022-12-27T00:54:33.852Z,2.70
2022-12-27T00:55:33.822Z,2.67
2022-12-27T00:56:33.818Z,2.66
2022-12-27T00:57:33.754Z,2.63
2022-12-27T00:58:38.415Z,2.61
2022-12-27T00:59:33.757Z,2.58
2022-12-27T01:00:33.785Z,2.59
2022-12-27T01:01:33.895Z,2.55
2022-12-27T01:02:33.694Z,2.56
2022-12-27T01:03:33.748Z,2.56
2022-12-27T01:04:33.745Z,2.58
2022-12-27T01:05:33.692Z,2.59
2022-12-27T01:06:33.708Z,2.64
2022-12-27T01:07:33.739Z,2.67
2022-12-27T01:08:33.676Z,2.71
2022-12-27T01:09:33.764Z,2.70
2022-12-27T01:10:33.539Z,2.71
2022-12-27T01:11:33.549Z,2.74
2022-12-27T01:12:33.505Z,2.76
2022-12-27T01:13:33.678Z,2.77
2022-12-27T01:14:33.509Z,2.77
2022-12-27T01:15:33.523Z,2.76
2022-12-27T01:16:33.574Z,2.73
2022-12-27T01:17:33.477Z,2.74
2022-12-27T01:18:33.473Z,2.71
2022-12-27T01:19:33.621Z,2.69
2022-12-27T01:20:33.597Z,2.66
2022-12-27T01:21:33.578Z,2.67
2022-12-27T01:22:33.543Z,2.67
2022-12-27T01:23:33.601Z,2.64
2022-12-27T01:24:33.501Z,2.61
2022-12-27T01:25:33.452Z,2.59
2022-12-27T01:26:33.497Z,2.58
2022-12-27T01:27:33.448Z,2.56
2022-12-27T01:28:33.522Z,2.53
2022-12-27T01:29:33.461Z,2.53
2022-12-27T01:30:33.431Z,2.52
2022-12-27T01:31:33.436Z,2.55
2022-12-27T01:32:33.455Z,2.56
2022-12-27T01:33:33.521Z,2.56
2022-12-27T01:34:33.436Z,2.59
2022-12-27T01:35:33.351Z,2.58
2022-12-27T01:36:33.420Z,2.59
2022-12-27T01:37:33.400Z,2.58
2022-12-27T01:38:33.452Z,2.56
2022-12-27T01:39:33.343Z,2.58
2022-12-27T01:40:33.309Z,2.56
2022-12-27T01:41:33.362Z,2.56
2022-12-27T01:42:33.320Z,2.59
2022-12-27T01:43:33.369Z,2.58
2022-12-27T01:44:33.352Z,2.61
2022-12-27T01:45:33.360Z,2.61
2022-12-27T01:46:33.241Z,2.59
2022-12-27T01:47:33.224Z,2.59
2022-12-27T01:48:33.281Z,2.61
2022-12-27T01:49:33.266Z,2.59
2022-12-27T01:50:33.333Z,2.56
2022-12-27T01:51:33.055Z,2.58
2022-12-27T01:52:35.047Z,2.56
2022-12-27T01:53:33.192Z,2.53
2022-12-27T01:54:33.162Z,2.56
2022-12-27T01:55:33.230Z,2.56
2022-12-27T01:56:33.146Z,2.59
2022-12-27T01:57:32.949Z,2.61
2022-12-27T01:58:33.115Z,2.63
2022-12-27T01:59:33.103Z,2.61
2022-12-27T02:00:33.194Z,2.64
2022-12-27T02:01:33.304Z,2.64
2022-12-27T02:02:33.302Z,2.64
2022-12-27T02:03:33.126Z,2.63
2022-12-27T02:04:33.209Z,2.61
2022-12-27T02:05:33.193Z,2.58
2022-12-27T02:06:33.113Z,2.58
2022-12-27T02:07:33.017Z,2.55
2022-12-27T02:08:33.098Z,2.52
2022-12-27T02:09:33.149Z,2.49
2022-12-27T02:10:33.065Z,2.49
2022-12-27T02:11:33.047Z,2.48
2022-12-27T02:12:33.105Z,2.45
2022-12-27T02:13:33.033Z,2.40
2022-12-27T02:14:33.007Z,2.40
2022-12-27T02:15:32.990Z,2.38
2022-12-27T02:16:33.094Z,2.38
2022-12-27T02:17:32.956Z,2.41
2022-12-27T02:18:32.954Z,2.41
2022-12-27T02:19:32.935Z,2.44
2022-12-27T02:20:32.921Z,2.40
2022-12-27T02:21:32.986Z,2.40
2022-12-27T02:22:32.964Z,2.38
2022-12-27T02:23:39.203Z,2.38
2022-12-27T02:24:32.866Z,2.41
2022-12-27T02:25:32.851Z,2.41
2022-12-27T02:26:32.840Z,2.38
2022-12-27T02:27:32.905Z,2.40
2022-12-27T02:28:32.823Z,2.38
2022-12-27T02:29:32.799Z,2.35
2022-12-27T02:30:32.841Z,2.35
2022-12-27T02:31:32.799Z,2.37
2022-12-27T02:32:32.867Z,2.37
2022-12-27T02:33:32.773Z,2.40
2022-12-27T02:34:32.757Z,2.38
2022-12-27T02:35:32.736Z,2.38
2022-12-27T02:36:32.722Z,2.40
2022-12-27T02:37:32.711Z,2.40
2022-12-27T02:38:32.777Z,2.41
2022-12-27T02:39:32.687Z,2.41
2022-12-27T02:40:32.677Z,2.44
2022-12-27T02:41:32.670Z,2.45
2022-12-27T02:42:32.661Z,2.45
2022-12-27T02:43:32.729Z,2.44
2022-12-27T02:44:32.629Z,2.46
2022-12-27T02:45:32.611Z,2.48
2022-12-27T02:46:32.699Z,2.49
2022-12-27T02:47:32.670Z,2.51
2022-12-27T02:48:32.653Z,2.53
2022-12-27T02:49:32.722Z,2.52
2022-12-27T02:50:32.714Z,2.52
2022-12-27T02:51:32.633Z,2.53
2022-12-27T02:52:32.556Z,2.55
2022-12-27T02:53:32.449Z,2.53
2022-12-27T02:54:32.545Z,2.56
2022-12-27T02:55:32.537Z,2.55
2022-12-27T02:56:32.625Z,2.56
2022-12-27T02:57:32.700Z,2.55
2022-12-27T02:58:32.535Z,2.51
2022-12-27T02:59:32.535Z,2.49
2022-12-27T03:00:32.535Z,2.52
2022-12-27T03:01:32.573Z,2.51
2022-12-27T03:02:32.503Z,2.51
2022-12-27T03:03:32.440Z,2.51
2022-12-27T03:04:32.519Z,2.52
2022-12-27T03:05:32.521Z,2.56
2022-12-27T03:06:32.440Z,2.58
2022-12-27T03:07:32.432Z,2.58
2022-12-27T03:08:32.420Z,2.61
2022-12-27T03:09:32.487Z,2.59
2022-12-27T03:10:32.403Z,2.58
2022-12-27T03:11:32.478Z,2.56
2022-12-27T03:12:32.397Z,2.53
2022-12-27T03:13:32.399Z,2.52
2022-12-27T03:14:32.317Z,2.51
2022-12-27T03:15:33.582Z,2.51
2022-12-27T03:16:32.322Z,2.52
2022-12-27T03:17:32.383Z,2.53
2022-12-27T03:18:32.303Z,2.55
2022-12-27T03:19:32.312Z,2.53
2022-12-27T03:20:32.320Z,2.58
2022-12-27T03:21:32.334Z,2.56
2022-12-27T03:22:32.262Z,2.55
2022-12-27T03:23:32.263Z,2.56
2022-12-27T03:24:32.349Z,2.55
2022-12-27T03:25:32.271Z,2.53
2022-12-27T03:26:32.061Z,2.52
2022-12-27T03:27:32.307Z,2.55
2022-12-27T03:28:32.235Z,2.51
2022-12-27T03:29:32.238Z,2.49
2022-12-27T03:30:32.088Z,2.49
2022-12-27T03:31:32.090Z,2.46
2022-12-27T03:32:32.077Z,2.48
2022-12-27T03:33:32.226Z,2.49
2022-12-27T03:34:32.223Z,2.51
2022-12-27T03:35:32.122Z,2.51
2022-12-27T03:36:32.035Z,2.51
2022-12-27T03:37:32.022Z,2.52
2022-12-27T03:38:32.016Z,2.53
2022-12-27T03:39:32.155Z,2.53
2022-12-27T03:40:31.984Z,2.52
2022-12-27T03:41:32.139Z,2.49
2022-12-27T03:42:31.987Z,2.49
2022-12-27T03:43:32.003Z,2.51
2022-12-27T03:44:32.150Z,2.51
2022-12-27T03:45:31.991Z,2.51
2022-12-27T03:46:32.048Z,2.52
2022-12-27T03:47:31.983Z,2.51
2022-12-27T03:48:31.993Z,2.53
2022-12-27T03:49:31.999Z,2.55
2022-12-27T03:50:31.971Z,2.55
2022-12-27T03:51:32.058Z,2.53
2022-12-27T03:52:31.948Z,2.56
2022-12-27T03:53:31.950Z,2.59
2022-12-27T03:54:31.931Z,2.61
2022-12-27T03:55:33.645Z,2.63
2022-12-27T03:56:31.891Z,2.66
2022-12-27T03:57:31.876Z,2.70
2022-12-27T03:58:31.859Z,2.71
2022-12-27T03:59:31.846Z,2.73
2022-12-27T04:00:31.851Z,2.77
2022-12-27T04:01:31.887Z,2.81
2022-12-27T04:02:32.105Z,2.82
2022-12-27T04:03:31.854Z,2.84
2022-12-27T04:04:31.781Z,2.84
2022-12-27T04:05:31.780Z,2.84
2022-12-27T04:06:31.787Z,2.85
2022-12-27T04:07:31.765Z,2.82
2022-12-27T04:08:31.751Z,2.84
2022-12-27T04:09:31.726Z,2.84
2022-12-27T04:10:31.728Z,2.85
2022-12-27T04:11:31.702Z,2.85
2022-12-27T04:12:31.673Z,2.87
2022-12-27T04:13:31.803Z,2.88
2022-12-27T04:14:31.624Z,2.92
2022-12-27T04:15:31.623Z,2.94
2022-12-27T04:16:31.749Z,2.95
2022-12-27T04:17:31.735Z,2.95
2022-12-27T04:18:31.801Z,2.95
2022-12-27T04:19:31.713Z,2.95
2022-12-27T04:20:31.556Z,2.98
2022-12-27T04:21:31.555Z,3.02
2022-12-27T04:22:31.581Z,3.05
2022-12-27T04:23:31.621Z,3.03
2022-12-27T04:24:31.638Z,3.03
2022-12-27T04:25:31.545Z,3.02
2022-12-27T04:26:31.692Z,3.02
2022-12-27T04:27:31.524Z,3.00
2022-12-27T04:28:31.542Z,3.00
2022-12-27T04:29:31.647Z,3.02
2022-12-27T04:30:31.550Z,3.06
2022-12-27T04:31:31.588Z,3.07
2022-12-27T04:32:31.534Z,3.09
2022-12-27T04:33:31.619Z,3.09
2022-12-27T04:34:31.564Z,3.10
2022-12-27T04:35:31.567Z,3.10
2022-12-27T04:36:31.437Z,3.12
2022-12-27T04:37:31.465Z,3.13
2022-12-27T04:38:31.501Z,3.12
2022-12-27T04:39:31.538Z,3.12
2022-12-27T04:40:31.257Z,3.12
2022-12-27T04:41:31.432Z,3.12
2022-12-27T04:42:31.530Z,3.10
2022-12-27T04:43:31.473Z,3.10
2022-12-27T04:44:31.409Z,3.13
2022-12-27T04:45:31.428Z,3.13
2022-12-27T04:46:31.443Z,3.15
2022-12-27T04:47:31.491Z,3.18
2022-12-27T04:48:31.409Z,3.20
2022-12-27T04:49:31.386Z,3.18
2022-12-27T04:50:31.376Z,3.21
2022-12-27T04:51:31.443Z,3.21
2022-12-27T04:52:31.369Z,3.23
2022-12-27T04:53:31.384Z,3.20
2022-12-27T04:54:31.298Z,3.23
2022-12-27T04:55:31.367Z,3.24
2022-12-27T04:56:31.426Z,3.24
2022-12-27T04:57:31.312Z,3.28
2022-12-27T04:58:31.266Z,3.33
2022-12-27T04:59:31.363Z,3.31
2022-12-27T05:00:31.431Z,3.34
2022-12-27T05:01:31.328Z,3.39
2022-12-27T05:02:31.310Z,3.39
2022-12-27T05:03:31.259Z,3.40
2022-12-27T05:04:31.181Z,3.43
2022-12-27T05:05:31.210Z,3.46
2022-12-27T05:06:31.309Z,3.50
2022-12-27T05:07:31.176Z,3.52
2022-12-27T05:08:31.072Z,3.52
2022-12-27T05:09:30.999Z,3.52
2022-12-27T05:10:31.123Z,3.52
2022-12-27T05:11:31.221Z,3.50
2022-12-27T05:12:31.094Z,3.50
2022-12-27T05:13:31.091Z,3.49
2022-12-27T05:14:31.079Z,3.47
2022-12-27T05:15:31.059Z,3.46
2022-12-27T05:16:31.211Z,3.46
2022-12-27T05:17:31.049Z,3.46
2022-12-27T05:18:30.961Z,3.44
2022-12-27T05:19:31.027Z,3.40
2022-12-27T05:20:31.022Z,3.42
2022-12-27T05:21:31.129Z,3.40
2022-12-27T05:22:31.132Z,3.44
2022-12-27T05:23:31.025Z,3.44
2022-12-27T05:24:31.036Z,3.46
2022-12-27T05:25:30.963Z,3.44
2022-12-27T05:26:30.987Z,3.44
2022-12-27T05:27:31.073Z,3.44
2022-12-27T05:28:31.015Z,3.46
2022-12-27T05:29:30.831Z,3.46
2022-12-27T05:30:30.952Z,3.46
2022-12-27T05:31:30.979Z,3.49
2022-12-27T05:32:30.948Z,3.50
2022-12-27T05:33:30.932Z,3.50
2022-12-27T05:34:30.937Z,3.53
2022-12-27T05:35:30.867Z,3.53
2022-12-27T05:36:30.955Z,3.57
2022-12-27T05:37:30.974Z,3.58
2022-12-27T05:38:30.911Z,3.60
2022-12-27T05:39:30.979Z,3.62
2022-12-27T05:40:30.699Z,3.62
2022-12-27T05:41:30.901Z,3.62
2022-12-27T05:42:30.925Z,3.60
2022-12-27T05:43:30.926Z,3.61
2022-12-27T05:44:30.829Z,3.60
2022-12-27T05:45:30.930Z,3.58
2022-12-27T05:46:30.883Z,3.54
2022-12-27T05:47:30.861Z,3.54
2022-12-27T05:48:30.880Z,3.53
2022-12-27T05:49:30.823Z,3.50
2022-12-27T05:50:30.778Z,3.50
2022-12-27T05:51:30.790Z,3.49
2022-12-27T05:52:31.640Z,3.46
2022-12-27T05:53:30.581Z,3.43
2022-12-27T05:54:30.616Z,3.39
2022-12-27T05:55:30.711Z,3.34
2022-12-27T05:56:30.633Z,3.31
2022-12-27T05:57:30.519Z,3.31
2022-12-27T05:58:30.606Z,3.31
2022-12-27T05:59:30.732Z,3.28
2022-12-27T06:00:30.536Z,3.33
2022-12-27T06:01:30.694Z,3.31
2022-12-27T06:02:30.550Z,3.34
2022-12-27T06:03:30.522Z,3.36
2022-12-27T06:04:30.488Z,3.40
2022-12-27T06:05:30.528Z,3.42
2022-12-27T06:06:30.450Z,3.43
2022-12-27T06:07:30.548Z,3.44
2022-12-27T06:08:30.432Z,3.47
2022-12-27T06:09:30.461Z,3.47
2022-12-27T06:10:30.448Z,3.49
2022-12-27T06:11:30.395Z,3.50
2022-12-27T06:12:30.390Z,3.52
2022-12-27T06:13:30.383Z,3.52
2022-12-27T06:14:30.435Z,3.47
2022-12-27T06:15:30.363Z,3.49
2022-12-27T06:16:30.378Z,3.49
2022-12-27T06:17:30.351Z,3.49
2022-12-27T06:18:30.334Z,3.50
2022-12-27T06:19:30.329Z,3.53
2022-12-27T06:20:30.309Z,3.57
2022-12-27T06:21:30.314Z,3.58
2022-12-27T06:22:30.329Z,3.64
2022-12-27T06:23:30.280Z,3.64
2022-12-27T06:24:30.466Z,3.64
2022-12-27T06:25:30.472Z,3.67
2022-12-27T06:26:30.491Z,3.68
2022-12-27T06:27:30.501Z,3.71
2022-12-27T06:28:30.500Z,3.72
2022-12-27T06:29:30.398Z,3.71
2022-12-27T06:30:35.863Z,3.75
2022-12-27T06:31:30.395Z,3.75
2022-12-27T06:32:30.197Z,3.78
2022-12-27T06:33:30.227Z,3.76
2022-12-27T06:34:30.156Z,3.78
2022-12-27T06:35:30.291Z,3.79
2022-12-27T06:36:30.185Z,3.79
2022-12-27T06:37:30.108Z,3.79
2022-12-27T06:38:30.173Z,3.80
2022-12-27T06:39:30.169Z,3.83
2022-12-27T06:40:30.135Z,3.85
2022-12-27T06:41:30.340Z,3.85
2022-12-27T06:42:30.364Z,3.86
2022-12-27T06:43:30.371Z,3.86
2022-12-27T06:44:30.390Z,3.88
2022-12-27T06:45:30.021Z,3.89
2022-12-27T06:46:30.392Z,3.88
2022-12-27T06:47:30.315Z,3.89
2022-12-27T06:48:30.365Z,3.92
2022-12-27T06:49:30.116Z,3.92
2022-12-27T06:50:30.079Z,3.96
2022-12-27T06:51:30.169Z,3.92
2022-12-27T06:52:30.052Z,3.96
2022-12-27T06:53:30.007Z,3.94
2022-12-27T06:54:30.105Z,3.97
2022-12-27T06:55:29.952Z,3.96
2022-12-27T06:56:29.887Z,3.98
2022-12-27T06:57:30.084Z,4.00
2022-12-27T06:58:29.927Z,4.00
2022-12-27T06:59:29.909Z,4.03
2022-12-27T07:00:30.149Z,4.01
2022-12-27T07:01:30.081Z,4.01
2022-12-27T07:02:30.002Z,4.03
2022-12-27T07:03:30.216Z,4.06
2022-12-27T07:04:29.828Z,4.04
2022-12-27T07:05:29.801Z,4.06
2022-12-27T07:06:29.856Z,4.07
2022-12-27T07:07:29.982Z,4.08
2022-12-27T07:08:30.138Z,4.07
2022-12-27T07:09:29.770Z,4.10
2022-12-27T07:10:30.182Z,4.10
2022-12-27T07:11:29.744Z,4.08
2022-12-27T07:12:36.267Z,4.07
2022-12-27T07:13:29.755Z,4.07
2022-12-27T07:14:29.751Z,4.08
2022-12-27T07:15:29.739Z,4.08
2022-12-27T07:16:29.767Z,4.07
2022-12-27T07:17:29.677Z,4.12
2022-12-27T07:18:29.682Z,4.07
2022-12-27T07:19:29.642Z,4.07
2022-12-27T07:20:29.963Z,4.08
2022-12-27T07:21:29.935Z,4.12
2022-12-27T07:22:29.964Z,4.14
2022-12-27T07:23:29.636Z,4.14
2022-12-27T07:24:29.720Z,4.15
2022-12-27T07:25:29.736Z,4.15
2022-12-27T07:26:29.652Z,4.16
2022-12-27T07:27:29.760Z,4.15
2022-12-27T07:28:29.773Z,4.16
2022-12-27T07:29:29.778Z,4.18
2022-12-27T07:30:29.896Z,4.18
2022-12-27T07:31:30.003Z,4.15
2022-12-27T07:32:29.823Z,4.18
2022-12-27T07:33:29.701Z,4.18
2022-12-27T07:34:29.522Z,4.19
2022-12-27T07:35:29.498Z,4.21
2022-12-27T07:36:29.722Z,4.19
2022-12-27T07:37:29.600Z,4.18
2022-12-27T07:38:29.487Z,4.19
2022-12-27T07:39:29.469Z,4.19
2022-12-27T07:40:29.585Z,4.21
2022-12-27T07:41:29.591Z,4.21
2022-12-27T07:42:29.717Z,4.19
2022-12-27T07:43:29.460Z,4.19
2022-12-27T07:44:29.621Z,4.21
2022-12-27T07:45:29.608Z,4.19
2022-12-27T07:46:29.669Z,4.19
2022-12-27T07:47:29.683Z,4.21
2022-12-27T07:48:29.365Z,4.24
2022-12-27T07:49:29.385Z,4.22
2022-12-27T07:50:29.401Z,4.22
2022-12-27T07:51:29.392Z,4.24
2022-12-27T07:52:29.413Z,4.24
2022-12-27T07:53:29.358Z,4.24
2022-12-27T07:54:29.332Z,4.25
2022-12-27T07:55:29.284Z,4.25
2022-12-27T07:56:29.278Z,4.26
2022-12-27T07:57:29.318Z,4.25
2022-12-27T07:58:29.279Z,4.26
2022-12-27T07:59:29.299Z,4.26
2022-12-27T08:00:29.266Z,4.29
2022-12-27T08:01:29.526Z,4.29
2022-12-27T08:02:29.413Z,4.29
2022-12-27T08:03:29.300Z,4.32
2022-12-27T08:04:29.373Z,4.29
2022-12-27T08:05:29.359Z,4.29
2022-12-27T08:06:29.553Z,4.33
2022-12-27T08:07:29.291Z,4.34
2022-12-27T08:08:29.355Z,4.33
2022-12-27T08:09:29.227Z,4.33
2022-12-27T08:10:29.594Z,4.33
2022-12-27T08:11:29.287Z,4.33
2022-12-27T08:12:29.140Z,4.34
2022-12-27T08:13:29.244Z,4.33
2022-12-27T08:14:29.224Z,4.32
2022-12-27T08:15:29.493Z,4.29
2022-12-27T08:16:29.517Z,4.33
2022-12-27T08:17:29.217Z,4.39
2022-12-27T08:18:29.113Z,4.43
2022-12-27T08:19:29.234Z,4.43
2022-12-27T08:20:29.229Z,4.42
2022-12-27T08:21:29.211Z,4.39
2022-12-27T08:22:29.476Z,4.40
2022-12-27T08:23:29.054Z,4.37
2022-12-27T08:24:29.147Z,4.37
2022-12-27T08:25:29.406Z,4.37
2022-12-27T08:26:29.095Z,4.33
2022-12-27T08:27:29.029Z,4.34
2022-12-27T08:28:29.189Z,4.40
2022-12-27T08:29:29.309Z,4.40
2022-12-27T08:30:29.324Z,4.39
2022-12-27T08:31:28.969Z,4.39
2022-12-27T08:32:29.276Z,4.42
2022-12-27T08:33:29.236Z,4.43
2022-12-27T08:34:29.096Z,4.43
2022-12-27T08:36:54.013Z,4.44
2022-12-27T08:37:29.137Z,4.46
2022-12-27T08:38:29.118Z,4.47
2022-12-27T08:39:29.101Z,4.51
2022-12-27T08:40:28.968Z,4.50
2022-12-27T08:41:29.062Z,4.52
2022-12-27T08:42:29.045Z,4.51
2022-12-27T08:43:29.266Z,4.50
2022-12-27T08:44:29.005Z,4.50
2022-12-27T08:45:28.997Z,4.51
2022-12-27T08:46:29.104Z,4.51
2022-12-27T08:47:28.944Z,4.50
2022-12-27T08:48:29.221Z,4.46
2022-12-27T08:49:29.144Z,4.44
2022-12-27T08:50:29.098Z,4.44
2022-12-27T08:51:35.937Z,4.46
2022-12-27T08:52:28.997Z,4.46
2022-12-27T08:53:28.946Z,4.50
2022-12-27T08:54:28.898Z,4.50
2022-12-27T08:55:29.000Z,4.46
2022-12-27T08:56:28.931Z,4.46
2022-12-27T08:57:28.899Z,4.44
2022-12-27T08:58:28.706Z,4.46
2022-12-27T08:59:28.709Z,4.47
2022-12-27T09:00:28.689Z,4.46
2022-12-27T09:01:28.936Z,4.47
2022-12-27T09:02:28.720Z,4.47
2022-12-27T09:03:28.675Z,4.47
2022-12-27T09:04:28.643Z,4.51
2022-12-27T09:05:28.629Z,4.52
2022-12-27T09:06:28.596Z,4.55
2022-12-27T09:07:28.655Z,4.58
2022-12-27T09:08:28.586Z,4.58
2022-12-27T09:09:28.636Z,4.58
2022-12-27T09:10:28.547Z,4.58
2022-12-27T09:11:28.590Z,4.58
2022-12-27T09:12:28.595Z,4.57
2022-12-27T09:13:28.558Z,4.59
2022-12-27T09:14:29.221Z,4.62
2022-12-27T09:15:28.555Z,4.64
2022-12-27T09:16:28.502Z,4.62
2022-12-27T09:17:28.507Z,4.61
2022-12-27T09:18:28.504Z,4.64
2022-12-27T09:19:28.462Z,4.65
2022-12-27T09:20:28.453Z,4.67
2022-12-27T09:21:28.510Z,4.70
2022-12-27T09:22:28.790Z,4.70
2022-12-27T09:23:28.438Z,4.70
2022-12-27T09:24:28.701Z,4.72
2022-12-27T09:25:28.508Z,4.69
2022-12-27T09:26:28.411Z,4.69
2022-12-27T09:27:28.603Z,4.70
2022-12-27T09:28:28.379Z,4.69
2022-12-27T09:29:28.402Z,4.67
2022-12-27T09:30:28.359Z,4.67
2022-12-27T09:31:28.452Z,4.70
2022-12-27T09:32:28.356Z,4.67
2022-12-27T09:33:28.322Z,4.73
2022-12-27T09:34:28.382Z,4.76
2022-12-27T09:35:29.050Z,4.76
2022-12-27T09:36:28.570Z,4.79
2022-12-27T09:37:28.512Z,4.80
2022-12-27T09:38:28.471Z,4.83
2022-12-27T09:39:28.423Z,4.83
2022-12-27T09:40:28.491Z,4.80
2022-12-27T09:43:02.931Z,4.83
2022-12-27T09:43:28.485Z,4.86
2022-12-27T09:44:28.416Z,4.83
2022-12-27T09:45:28.367Z,4.84
2022-12-27T09:46:28.392Z,4.88
2022-12-27T09:47:28.506Z,4.91
2022-12-27T09:48:32.928Z,4.92
2022-12-27T09:49:28.150Z,4.88
2022-12-27T09:50:28.349Z,4.89
2022-12-27T09:51:28.290Z,4.89
2022-12-27T09:52:28.224Z,4.88
2022-12-27T09:53:28.433Z,4.92
2022-12-27T09:54:28.379Z,4.91
2022-12-27T09:55:28.322Z,4.92
2022-12-27T09:56:46.984Z,4.95
2022-12-27T09:57:28.201Z,4.96
2022-12-27T09:58:28.395Z,5.04
2022-12-27T09:59:28.388Z,5.09
2022-12-27T10:00:34.803Z,5.04
2022-12-27T10:01:28.185Z,5.04
2022-12-27T10:02:28.523Z,5.02
2022-12-27T10:03:28.183Z,5.04
2022-12-27T10:04:45.556Z,5.09
2022-12-27T10:05:28.264Z,5.14
2022-12-27T10:06:28.276Z,5.17
2022-12-27T10:07:28.026Z,5.22
2022-12-27T10:08:27.994Z,5.23
2022-12-27T10:09:28.048Z,5.23
2022-12-27T10:10:28.059Z,5.25
2022-12-27T10:11:27.935Z,5.28
2022-12-27T10:12:31.596Z,5.30
2022-12-27T10:13:28.338Z,5.27
2022-12-27T10:14:27.864Z,5.30
2022-12-27T10:15:27.884Z,5.23
2022-12-27T10:16:28.065Z,5.27
2022-12-27T10:17:28.032Z,5.32
2022-12-27T10:18:27.931Z,5.38
2022-12-27T10:19:27.989Z,5.35
2022-12-27T10:20:27.970Z,5.37
2022-12-27T10:21:27.838Z,5.37
2022-12-27T10:22:27.935Z,5.41
2022-12-27T10:23:27.928Z,5.46
2022-12-27T10:24:27.919Z,5.48
2022-12-27T10:25:27.903Z,5.50
2022-12-27T10:26:27.820Z,5.50
2022-12-27T10:27:27.875Z,5.57
2022-12-27T10:28:27.736Z,5.57
2022-12-27T10:29:27.759Z,5.63
2022-12-27T10:30:27.819Z,5.66
2022-12-27T10:31:27.940Z,5.59
2022-12-27T10:32:27.815Z,5.56
2022-12-27T10:33:27.773Z,5.53
2022-12-27T10:34:27.692Z,5.56
2022-12-27T10:35:27.841Z,5.59
2022-12-27T10:36:27.833Z,5.59
2022-12-27T10:37:27.827Z,5.60
2022-12-27T10:38:27.817Z,5.66
2022-12-27T10:39:27.821Z,5.71
2022-12-27T10:40:34.061Z,5.70
2022-12-27T10:41:27.809Z,5.73
2022-12-27T10:42:27.795Z,5.70
2022-12-27T10:43:27.552Z,5.75
2022-12-27T10:44:28.978Z,5.85
2022-12-27T10:45:27.553Z,5.77
2022-12-27T10:46:32.480Z,5.73
2022-12-27T10:47:27.630Z,5.71
2022-12-27T10:48:36.341Z,5.71
2022-12-27T10:49:27.528Z,5.73
2022-12-27T10:50:27.496Z,5.74
2022-12-27T10:51:27.533Z,5.70
2022-12-27T10:52:27.531Z,5.71
2022-12-27T10:53:27.763Z,5.78
2022-12-27T10:54:27.510Z,5.81
2022-12-27T10:55:27.633Z,5.77
2022-12-27T10:56:27.423Z,5.77
2022-12-27T10:57:27.703Z,5.77
2022-12-27T10:58:27.685Z,5.78
2022-12-27T10:59:27.415Z,5.89
2022-12-27T11:00:27.508Z,5.93
2022-12-27T11:01:27.582Z,5.93
2022-12-27T11:02:27.434Z,5.95
2022-12-27T11:03:27.565Z,6.00
2022-12-27T11:04:27.504Z,6.04
2022-12-27T11:05:27.549Z,6.06
2022-12-27T11:06:27.363Z,6.07
2022-12-27T11:07:27.327Z,6.09
2022-12-27T11:08:27.331Z,6.04
2022-12-27T11:09:27.348Z,6.01
2022-12-27T11:10:27.307Z,6.04
2022-12-27T11:11:27.498Z,6.09
2022-12-27T11:12:27.337Z,6.07
2022-12-27T11:13:27.287Z,6.03
2022-12-27T11:14:27.370Z,6.01
2022-12-27T11:15:27.227Z,5.96
2022-12-27T11:16:27.334Z,5.95
2022-12-27T11:17:27.244Z,5.91
2022-12-27T11:18:27.272Z,5.85
2022-12-27T11:19:27.282Z,5.83
2022-12-27T11:20:27.170Z,5.88
2022-12-27T11:21:28.183Z,5.91
2022-12-27T11:22:27.165Z,5.89
2022-12-27T11:23:27.198Z,5.92
2022-12-27T11:24:27.290Z,5.92
2022-12-27T11:25:27.156Z,5.91
2022-12-27T11:26:27.213Z,6.06
2022-12-27T11:27:27.212Z,6.19
2022-12-27T11:28:27.108Z,6.30
2022-12-27T11:29:27.164Z,6.32
2022-12-27T11:30:27.107Z,6.33
2022-12-27T11:31:27.128Z,6.38
2022-12-27T11:32:27.081Z,6.40
2022-12-27T11:33:27.091Z,6.36
2022-12-27T11:34:27.068Z,6.38
2022-12-27T11:35:27.024Z,6.36
2022-12-27T11:36:27.086Z,6.32
2022-12-27T11:37:27.030Z,6.21
2022-12-27T11:38:27.032Z,6.21
2022-12-27T11:39:27.069Z,6.40
2022-12-27T11:40:26.961Z,6.44
2022-12-27T11:41:28.129Z,6.44
2022-12-27T11:42:27.148Z,6.48
2022-12-27T11:43:26.959Z,6.72
2022-12-27T11:44:26.999Z,6.65
2022-12-27T11:45:26.970Z,6.56
2022-12-27T11:46:27.074Z,6.47
2022-12-27T11:47:27.026Z,6.40
2022-12-27T11:48:27.393Z,6.40
2022-12-27T11:49:26.917Z,6.33
2022-12-27T11:50:26.941Z,6.26
2022-12-27T11:51:26.906Z,6.22
2022-12-27T11:52:26.896Z,6.22
2022-12-27T11:53:26.847Z,6.21
2022-12-27T11:54:26.838Z,6.18
2022-12-27T11:55:26.909Z,6.11
2022-12-27T11:56:26.828Z,6.11
2022-12-27T11:57:26.837Z,6.10
2022-12-27T11:58:26.822Z,6.10
2022-12-27T11:59:26.787Z,6.14
2022-12-27T12:00:26.823Z,6.10
2022-12-27T12:01:26.780Z,6.11
2022-12-27T12:02:26.810Z,6.14
2022-12-27T12:03:26.870Z,6.11
2022-12-27T12:04:26.727Z,6.06
2022-12-27T12:05:26.788Z,6.00
2022-12-27T12:06:31.445Z,5.95
2022-12-27T12:07:26.709Z,5.92
2022-12-27T12:08:26.759Z,5.88
2022-12-27T12:09:26.719Z,5.88
2022-12-27T12:10:26.720Z,5.89
2022-12-27T12:11:26.680Z,5.86
2022-12-27T12:12:26.654Z,5.89
2022-12-27T12:13:26.659Z,5.88
2022-12-27T12:14:26.619Z,5.88
2022-12-27T12:15:26.678Z,5.86
2022-12-27T12:16:26.632Z,5.83
2022-12-27T12:17:31.102Z,5.85
2022-12-27T12:18:26.602Z,5.85
2022-12-27T12:19:26.583Z,5.85
2022-12-27T12:20:26.585Z,5.86
2022-12-27T12:21:26.587Z,5.91
2022-12-27T12:22:26.650Z,6.14
2022-12-27T12:23:26.749Z,6.33
2022-12-27T12:24:26.516Z,6.25
2022-12-27T12:25:26.613Z,6.32
2022-12-27T12:26:26.500Z,6.53
2022-12-27T12:27:26.649Z,6.44
2022-12-27T12:28:56.347Z,6.33
2022-12-27T12:29:26.783Z,6.18
2022-12-27T12:30:27.692Z,6.10
2022-12-27T12:31:26.584Z,6.00
2022-12-27T12:32:26.563Z,5.92
2022-12-27T12:33:26.425Z,5.89
2022-12-27T12:34:26.480Z,5.88
2022-12-27T12:35:26.563Z,5.88
2022-12-27T12:36:26.405Z,5.89
2022-12-27T12:37:26.414Z,5.88
2022-12-27T12:38:26.577Z,5.86
2022-12-27T12:39:26.405Z,5.86
2022-12-27T12:40:26.424Z,5.89
2022-12-27T12:41:26.590Z,5.93
2022-12-27T12:42:26.354Z,6.00
2022-12-27T12:43:26.359Z,6.01
2022-12-27T12:44:26.292Z,5.98
2022-12-27T12:45:26.344Z,5.98
2022-12-27T12:46:26.351Z,6.01
2022-12-27T12:47:26.438Z,6.10
2022-12-27T12:48:26.341Z,6.14
2022-12-27T12:49:26.296Z,6.19
2022-12-27T12:50:26.455Z,6.25
2022-12-27T12:51:26.247Z,6.29
2022-12-27T12:52:26.668Z,6.36
2022-12-27T12:53:26.255Z,6.43
2022-12-27T12:54:26.238Z,6.47
2022-12-27T12:55:26.541Z,6.51
2022-12-27T12:56:26.200Z,6.54
2022-12-27T12:57:26.194Z,6.56
2022-12-27T12:58:26.319Z,6.61
2022-12-27T12:59:26.248Z,6.65
2022-12-27T13:00:26.188Z,6.66
2022-12-27T13:01:26.197Z,6.62
2022-12-27T13:02:26.340Z,6.61
2022-12-27T13:03:26.320Z,6.59
2022-12-27T13:04:26.386Z,6.59
2022-12-27T13:05:26.252Z,6.62
2022-12-27T13:06:26.349Z,6.61
2022-12-27T13:07:26.085Z,6.68
2022-12-27T13:08:26.146Z,6.69
2022-12-27T13:09:26.079Z,6.72
2022-12-27T13:10:26.071Z,6.79
2022-12-27T13:11:26.048Z,6.76
2022-12-27T13:12:26.048Z,6.71
2022-12-27T13:13:26.006Z,6.68
2022-12-27T13:14:26.044Z,6.65
2022-12-27T13:15:26.022Z,6.62
2022-12-27T13:16:26.012Z,6.61
2022-12-27T13:17:26.133Z,6.58
2022-12-27T13:18:30.478Z,6.54
2022-12-27T13:19:26.132Z,6.59
2022-12-27T13:20:25.961Z,6.59